logo
Rechercher aéroport 
image banner adimage banner adimage banner ad
image banner ad

HKXK - Emakoko

Situé à , Kenya

ICAO - , IATA -

Données fournies par Airmate  

Information générale

Coordonnées: S1°24'9" E36°51'3"
Élévation : 5321 feet MSL.
 
Voir autres Aéroports à Nairobi Province

Données opérationnelles

Special qualification required
Heure actuelle UTC:
Heure actuelle locale:
Météo à : HKNW - Nairobi Wilson ( 10 km )
METAR: HKNW 201200Z 24010KT 9999 SCT027 SCT280 26/16 Q1021
TAF: TAF HKNW 201100Z 2012/2112 24010KT 9999 BKN025 TEMPO 2013/2017 -SHRA FEW022CB BKN023 BKN080 BECMG 2020/2023 00000KT -RA BKN016 BKN080 BECMG 2104/2108 22010KT NSW BKN025
Voir NOTAMs / SUP AIP / TFR affectant cet aéroport [VIEW]
Fréquences de communication: [VIEW]

Pistes:

Identifiant RWYQFULongueur (ft)Largeur (ft)SurfaceLDA (ft)
1000UNK
2800UNK

Coordonnées de l'aéroport

Adresse: Kenya

Vue satellite de HKXK